sensor_id;sensor_type;location;lat;lon;timestamp;P1;durP1;ratioP1;P2;durP2;ratioP2
32697;SDS011;19087;51.062;3.754;2022-11-12T00:01:45;23.67;;;18.52;;
32697;SDS011;19087;51.062;3.754;2022-11-12T00:04:11;23.65;;;18.63;;
32697;SDS011;19087;51.062;3.754;2022-11-12T00:06:36;25.88;;;17.95;;
32697;SDS011;19087;51.062;3.754;2022-11-12T00:09:02;23.27;;;19.35;;
32697;SDS011;19087;51.062;3.754;2022-11-12T00:11:28;27.95;;;21.05;;
32697;SDS011;19087;51.062;3.754;2022-11-12T00:13:53;27.48;;;22.00;;
32697;SDS011;19087;51.062;3.754;2022-11-12T00:16:19;28.33;;;21.67;;
32697;SDS011;19087;51.062;3.754;2022-11-12T00:18:44;25.75;;;20.58;;
32697;SDS011;19087;51.062;3.754;2022-11-12T00:21:12;25.20;;;19.63;;
32697;SDS011;19087;51.062;3.754;2022-11-12T00:23:37;23.52;;;19.20;;
32697;SDS011;19087;51.062;3.754;2022-11-12T00:26:03;21.23;;;17.63;;
32697;SDS011;19087;51.062;3.754;2022-11-12T00:28:29;23.92;;;18.42;;
32697;SDS011;19087;51.062;3.754;2022-11-12T00:30:54;25.13;;;19.08;;
32697;SDS011;19087;51.062;3.754;2022-11-12T00:33:20;26.73;;;19.85;;
32697;SDS011;19087;51.062;3.754;2022-11-12T00:35:45;25.00;;;18.70;;
32697;SDS011;19087;51.062;3.754;2022-11-12T00:38:18;26.23;;;19.75;;
32697;SDS011;19087;51.062;3.754;2022-11-12T00:40:43;26.02;;;19.48;;
32697;SDS011;19087;51.062;3.754;2022-11-12T00:43:09;31.13;;;22.00;;
32697;SDS011;19087;51.062;3.754;2022-11-12T00:48:37;26.38;;;20.00;;
32697;SDS011;19087;51.062;3.754;2022-11-12T00:51:04;25.00;;;20.02;;
32697;SDS011;19087;51.062;3.754;2022-11-12T00:53:30;28.40;;;20.77;;
32697;SDS011;19087;51.062;3.754;2022-11-12T00:56:03;27.05;;;21.27;;
32697;SDS011;19087;51.062;3.754;2022-11-12T00:58:30;24.25;;;19.75;;
32697;SDS011;19087;51.062;3.754;2022-11-12T01:00:57;27.98;;;20.75;;
32697;SDS011;19087;51.062;3.754;2022-11-12T01:03:28;26.77;;;20.42;;
32697;SDS011;19087;51.062;3.754;2022-11-12T01:05:54;27.58;;;19.63;;
32697;SDS011;19087;51.062;3.754;2022-11-12T01:08:25;25.58;;;18.95;;
32697;SDS011;19087;51.062;3.754;2022-11-12T01:10:53;22.30;;;17.52;;
32697;SDS011;19087;51.062;3.754;2022-11-12T01:13:19;24.70;;;19.38;;
32697;SDS011;19087;51.062;3.754;2022-11-12T01:15:45;28.55;;;16.98;;
32697;SDS011;19087;51.062;3.754;2022-11-12T01:18:10;23.30;;;18.25;;
32697;SDS011;19087;51.062;3.754;2022-11-12T01:20:37;25.55;;;18.48;;
32697;SDS011;19087;51.062;3.754;2022-11-12T01:23:03;25.05;;;18.30;;
32697;SDS011;19087;51.062;3.754;2022-11-12T01:25:29;25.55;;;18.00;;
32697;SDS011;19087;51.062;3.754;2022-11-12T01:27:54;22.10;;;17.38;;
32697;SDS011;19087;51.062;3.754;2022-11-12T01:30:20;22.67;;;16.98;;
32697;SDS011;19087;51.062;3.754;2022-11-12T01:32:46;26.75;;;17.10;;
32697;SDS011;19087;51.062;3.754;2022-11-12T01:35:12;21.17;;;16.75;;
32697;SDS011;19087;51.062;3.754;2022-11-12T01:37:37;27.92;;;17.75;;
32697;SDS011;19087;51.062;3.754;2022-11-12T01:40:03;22.17;;;17.83;;
32697;SDS011;19087;51.062;3.754;2022-11-12T01:42:30;21.58;;;17.17;;
32697;SDS011;19087;51.062;3.754;2022-11-12T01:44:57;22.00;;;17.75;;
32697;SDS011;19087;51.062;3.754;2022-11-12T01:47:24;24.38;;;17.45;;
32697;SDS011;19087;51.062;3.754;2022-11-12T01:49:59;21.77;;;17.95;;
32697;SDS011;19087;51.062;3.754;2022-11-12T01:52:39;22.33;;;16.80;;
32697;SDS011;19087;51.062;3.754;2022-11-12T01:55:21;20.38;;;16.75;;
32697;SDS011;19087;51.062;3.754;2022-11-12T01:58:08;21.35;;;16.67;;
32697;SDS011;19087;51.062;3.754;2022-11-12T02:00:36;19.88;;;16.42;;
32697;SDS011;19087;51.062;3.754;2022-11-12T02:03:04;23.52;;;15.57;;
32697;SDS011;19087;51.062;3.754;2022-11-12T02:05:34;21.58;;;16.52;;
32697;SDS011;19087;51.062;3.754;2022-11-12T02:08:01;21.52;;;15.75;;
32697;SDS011;19087;51.062;3.754;2022-11-12T02:10:29;19.55;;;16.17;;
32697;SDS011;19087;51.062;3.754;2022-11-12T02:12:55;18.60;;;15.93;;
32697;SDS011;19087;51.062;3.754;2022-11-12T02:15:39;20.38;;;15.70;;
32697;SDS011;19087;51.062;3.754;2022-11-12T02:18:05;22.83;;;17.75;;
32697;SDS011;19087;51.062;3.754;2022-11-12T02:20:35;20.95;;;15.23;;
32697;SDS011;19087;51.062;3.754;2022-11-12T02:23:02;19.27;;;15.55;;
32697;SDS011;19087;51.062;3.754;2022-11-12T02:25:29;19.55;;;14.82;;
32697;SDS011;19087;51.062;3.754;2022-11-12T02:27:55;20.67;;;15.55;;
32697;SDS011;19087;51.062;3.754;2022-11-12T02:33:07;18.98;;;15.82;;
32697;SDS011;19087;51.062;3.754;2022-11-12T02:35:33;23.67;;;17.38;;
32697;SDS011;19087;51.062;3.754;2022-11-12T02:37:59;18.10;;;14.85;;
32697;SDS011;19087;51.062;3.754;2022-11-12T02:40:25;22.25;;;15.88;;
32697;SDS011;19087;51.062;3.754;2022-11-12T02:42:50;22.40;;;16.55;;
32697;SDS011;19087;51.062;3.754;2022-11-12T02:45:16;20.85;;;15.43;;
32697;SDS011;19087;51.062;3.754;2022-11-12T02:47:42;21.23;;;14.68;;
32697;SDS011;19087;51.062;3.754;2022-11-12T02:53:30;21.55;;;16.00;;
32697;SDS011;19087;51.062;3.754;2022-11-12T02:55:57;18.48;;;14.20;;
32697;SDS011;19087;51.062;3.754;2022-11-12T02:58:23;19.50;;;13.85;;
32697;SDS011;19087;51.062;3.754;2022-11-12T03:00:49;20.50;;;15.05;;
32697;SDS011;19087;51.062;3.754;2022-11-12T03:03:14;20.52;;;14.73;;
32697;SDS011;19087;51.062;3.754;2022-11-12T03:05:40;18.95;;;14.07;;
32697;SDS011;19087;51.062;3.754;2022-11-12T03:08:07;19.42;;;15.25;;
32697;SDS011;19087;51.062;3.754;2022-11-12T03:10:35;17.65;;;14.77;;
32697;SDS011;19087;51.062;3.754;2022-11-12T03:13:02;19.02;;;13.75;;
32697;SDS011;19087;51.062;3.754;2022-11-12T03:15:28;20.98;;;14.90;;
32697;SDS011;19087;51.062;3.754;2022-11-12T03:17:56;20.52;;;15.35;;
32697;SDS011;19087;51.062;3.754;2022-11-12T03:20:22;18.30;;;13.98;;
32697;SDS011;19087;51.062;3.754;2022-11-12T03:22:59;18.95;;;13.88;;
32697;SDS011;19087;51.062;3.754;2022-11-12T03:25:26;15.73;;;14.02;;
32697;SDS011;19087;51.062;3.754;2022-11-12T03:27:56;16.95;;;13.73;;
32697;SDS011;19087;51.062;3.754;2022-11-12T03:30:33;17.50;;;13.70;;
32697;SDS011;19087;51.062;3.754;2022-11-12T03:33:00;19.60;;;13.75;;
32697;SDS011;19087;51.062;3.754;2022-11-12T03:35:26;17.13;;;14.05;;
32697;SDS011;19087;51.062;3.754;2022-11-12T03:50:25;19.88;;;15.05;;
32697;SDS011;19087;51.062;3.754;2022-11-12T03:52:52;20.83;;;16.02;;
32697;SDS011;19087;51.062;3.754;2022-11-12T03:55:21;20.17;;;14.27;;
32697;SDS011;19087;51.062;3.754;2022-11-12T03:57:48;18.35;;;14.88;;
32697;SDS011;19087;51.062;3.754;2022-11-12T04:00:15;15.43;;;12.73;;
32697;SDS011;19087;51.062;3.754;2022-11-12T04:02:42;17.42;;;14.02;;
32697;SDS011;19087;51.062;3.754;2022-11-12T04:05:07;15.73;;;13.25;;
32697;SDS011;19087;51.062;3.754;2022-11-12T04:11:03;15.75;;;12.50;;
32697;SDS011;19087;51.062;3.754;2022-11-12T04:13:37;14.98;;;12.77;;
32697;SDS011;19087;51.062;3.754;2022-11-12T04:16:05;18.13;;;13.60;;
32697;SDS011;19087;51.062;3.754;2022-11-12T04:18:53;17.23;;;12.85;;
32697;SDS011;19087;51.062;3.754;2022-11-12T04:24:33;18.73;;;13.15;;
32697;SDS011;19087;51.062;3.754;2022-11-12T04:27:20;15.98;;;12.65;;
32697;SDS011;19087;51.062;3.754;2022-11-12T04:29:51;13.95;;;11.55;;
32697;SDS011;19087;51.062;3.754;2022-11-12T04:32:57;19.20;;;13.05;;
32697;SDS011;19087;51.062;3.754;2022-11-12T04:35:23;15.10;;;12.48;;
32697;SDS011;19087;51.062;3.754;2022-11-12T04:37:50;15.57;;;11.85;;
32697;SDS011;19087;51.062;3.754;2022-11-12T04:40:17;14.27;;;11.80;;
32697;SDS011;19087;51.062;3.754;2022-11-12T04:43:08;15.18;;;11.90;;
32697;SDS011;19087;51.062;3.754;2022-11-12T04:45:54;14.48;;;12.18;;
32697;SDS011;19087;51.062;3.754;2022-11-12T04:48:20;15.35;;;13.45;;
32697;SDS011;19087;51.062;3.754;2022-11-12T04:50:48;15.30;;;12.85;;
32697;SDS011;19087;51.062;3.754;2022-11-12T04:53:17;14.70;;;12.65;;
32697;SDS011;19087;51.062;3.754;2022-11-12T04:55:43;14.98;;;13.32;;
32697;SDS011;19087;51.062;3.754;2022-11-12T04:58:09;15.52;;;12.85;;
32697;SDS011;19087;51.062;3.754;2022-11-12T05:00:36;13.98;;;12.50;;
32697;SDS011;19087;51.062;3.754;2022-11-12T05:03:01;14.02;;;12.48;;
32697;SDS011;19087;51.062;3.754;2022-11-12T05:05:27;13.85;;;12.38;;
32697;SDS011;19087;51.062;3.754;2022-11-12T05:07:52;15.23;;;12.45;;
32697;SDS011;19087;51.062;3.754;2022-11-12T05:10:18;16.05;;;11.82;;
32697;SDS011;19087;51.062;3.754;2022-11-12T05:12:43;14.65;;;11.88;;
32697;SDS011;19087;51.062;3.754;2022-11-12T05:15:10;14.57;;;12.52;;
32697;SDS011;19087;51.062;3.754;2022-11-12T05:17:36;15.10;;;12.52;;
32697;SDS011;19087;51.062;3.754;2022-11-12T05:20:06;14.77;;;11.40;;
32697;SDS011;19087;51.062;3.754;2022-11-12T05:22:33;15.82;;;12.57;;
32697;SDS011;19087;51.062;3.754;2022-11-12T05:24:58;13.45;;;11.00;;
32697;SDS011;19087;51.062;3.754;2022-11-12T05:27:24;15.65;;;13.63;;
32697;SDS011;19087;51.062;3.754;2022-11-12T05:29:49;15.75;;;12.27;;
32697;SDS011;19087;51.062;3.754;2022-11-12T05:32:15;13.65;;;11.27;;
32697;SDS011;19087;51.062;3.754;2022-11-12T05:34:42;16.70;;;12.75;;
32697;SDS011;19087;51.062;3.754;2022-11-12T05:37:08;14.02;;;11.35;;
32697;SDS011;19087;51.062;3.754;2022-11-12T05:39:35;14.02;;;11.68;;
32697;SDS011;19087;51.062;3.754;2022-11-12T05:42:01;17.13;;;12.18;;
32697;SDS011;19087;51.062;3.754;2022-11-12T05:44:27;17.70;;;13.65;;
32697;SDS011;19087;51.062;3.754;2022-11-12T05:46:52;14.00;;;11.90;;
32697;SDS011;19087;51.062;3.754;2022-11-12T05:49:18;14.38;;;12.00;;
32697;SDS011;19087;51.062;3.754;2022-11-12T05:51:43;13.82;;;11.07;;
32697;SDS011;19087;51.062;3.754;2022-11-12T05:54:09;13.05;;;10.77;;
32697;SDS011;19087;51.062;3.754;2022-11-12T05:56:35;14.48;;;11.10;;
32697;SDS011;19087;51.062;3.754;2022-11-12T06:05:47;14.80;;;11.85;;
32697;SDS011;19087;51.062;3.754;2022-11-12T06:08:12;15.20;;;12.15;;
32697;SDS011;19087;51.062;3.754;2022-11-12T06:10:38;17.73;;;12.00;;
32697;SDS011;19087;51.062;3.754;2022-11-12T06:13:04;15.38;;;11.68;;
32697;SDS011;19087;51.062;3.754;2022-11-12T06:15:29;16.38;;;11.80;;
32697;SDS011;19087;51.062;3.754;2022-11-12T06:17:55;14.00;;;11.55;;
32697;SDS011;19087;51.062;3.754;2022-11-12T06:20:21;15.25;;;11.13;;
32697;SDS011;19087;51.062;3.754;2022-11-12T06:22:47;17.95;;;12.95;;
32697;SDS011;19087;51.062;3.754;2022-11-12T06:25:13;13.85;;;11.10;;
32697;SDS011;19087;51.062;3.754;2022-11-12T06:27:39;15.65;;;11.75;;
32697;SDS011;19087;51.062;3.754;2022-11-12T06:30:05;14.57;;;11.27;;
32697;SDS011;19087;51.062;3.754;2022-11-12T06:32:31;13.52;;;11.32;;
32697;SDS011;19087;51.062;3.754;2022-11-12T06:34:56;15.52;;;12.43;;
32697;SDS011;19087;51.062;3.754;2022-11-12T06:37:22;12.95;;;11.05;;
32697;SDS011;19087;51.062;3.754;2022-11-12T06:39:48;13.77;;;10.52;;
32697;SDS011;19087;51.062;3.754;2022-11-12T06:42:14;11.65;;;10.10;;
32697;SDS011;19087;51.062;3.754;2022-11-12T06:44:40;17.92;;;12.13;;
32697;SDS011;19087;51.062;3.754;2022-11-12T06:47:05;14.07;;;11.13;;
32697;SDS011;19087;51.062;3.754;2022-11-12T06:49:31;13.27;;;11.15;;
32697;SDS011;19087;51.062;3.754;2022-11-12T06:51:57;12.98;;;11.13;;
32697;SDS011;19087;51.062;3.754;2022-11-12T06:54:23;19.10;;;13.15;;
32697;SDS011;19087;51.062;3.754;2022-11-12T06:56:48;15.13;;;11.57;;
32697;SDS011;19087;51.062;3.754;2022-11-12T06:59:14;15.63;;;12.02;;
32697;SDS011;19087;51.062;3.754;2022-11-12T07:01:40;16.33;;;11.98;;
32697;SDS011;19087;51.062;3.754;2022-11-12T07:04:05;16.90;;;11.88;;
32697;SDS011;19087;51.062;3.754;2022-11-12T07:06:32;16.63;;;11.13;;
32697;SDS011;19087;51.062;3.754;2022-11-12T07:08:57;24.52;;;14.15;;
32697;SDS011;19087;51.062;3.754;2022-11-12T07:11:23;37.13;;;20.23;;
32697;SDS011;19087;51.062;3.754;2022-11-12T07:13:49;25.20;;;16.23;;
32697;SDS011;19087;51.062;3.754;2022-11-12T07:16:15;28.15;;;17.20;;
32697;SDS011;19087;51.062;3.754;2022-11-12T07:18:42;26.83;;;15.93;;
32697;SDS011;19087;51.062;3.754;2022-11-12T07:21:13;27.88;;;17.63;;
32697;SDS011;19087;51.062;3.754;2022-11-12T07:23:43;31.67;;;18.40;;
32697;SDS011;19087;51.062;3.754;2022-11-12T07:26:14;28.13;;;16.25;;
32697;SDS011;19087;51.062;3.754;2022-11-12T07:28:41;23.27;;;14.80;;
32697;SDS011;19087;51.062;3.754;2022-11-12T07:31:12;21.73;;;14.57;;
32697;SDS011;19087;51.062;3.754;2022-11-12T07:33:39;15.95;;;12.75;;
32697;SDS011;19087;51.062;3.754;2022-11-12T07:36:09;19.25;;;13.15;;
32697;SDS011;19087;51.062;3.754;2022-11-12T07:38:36;21.38;;;14.30;;
32697;SDS011;19087;51.062;3.754;2022-11-12T07:41:05;18.80;;;12.80;;
32697;SDS011;19087;51.062;3.754;2022-11-12T07:43:31;16.73;;;12.57;;
32697;SDS011;19087;51.062;3.754;2022-11-12T07:45:58;16.10;;;11.98;;
32697;SDS011;19087;51.062;3.754;2022-11-12T07:48:25;19.83;;;12.55;;
32697;SDS011;19087;51.062;3.754;2022-11-12T07:50:51;17.80;;;12.13;;
32697;SDS011;19087;51.062;3.754;2022-11-12T07:53:16;20.17;;;11.63;;
32697;SDS011;19087;51.062;3.754;2022-11-12T07:55:42;16.98;;;12.13;;
32697;SDS011;19087;51.062;3.754;2022-11-12T07:58:16;17.77;;;12.35;;
32697;SDS011;19087;51.062;3.754;2022-11-12T08:00:42;18.10;;;12.77;;
32697;SDS011;19087;51.062;3.754;2022-11-12T08:03:07;19.00;;;11.82;;
32697;SDS011;19087;51.062;3.754;2022-11-12T08:05:33;17.00;;;12.02;;
32697;SDS011;19087;51.062;3.754;2022-11-12T08:07:58;13.68;;;11.40;;
32697;SDS011;19087;51.062;3.754;2022-11-12T08:10:24;14.60;;;10.73;;
32697;SDS011;19087;51.062;3.754;2022-11-12T08:12:49;16.73;;;12.07;;
32697;SDS011;19087;51.062;3.754;2022-11-12T08:15:15;12.88;;;11.48;;
32697;SDS011;19087;51.062;3.754;2022-11-12T08:17:41;14.10;;;10.18;;
32697;SDS011;19087;51.062;3.754;2022-11-12T08:20:06;12.43;;;10.43;;
32697;SDS011;19087;51.062;3.754;2022-11-12T08:22:32;17.35;;;10.82;;
32697;SDS011;19087;51.062;3.754;2022-11-12T08:24:58;13.20;;;10.27;;
32697;SDS011;19087;51.062;3.754;2022-11-12T08:27:23;13.40;;;10.38;;
32697;SDS011;19087;51.062;3.754;2022-11-12T08:29:49;12.70;;;10.02;;
32697;SDS011;19087;51.062;3.754;2022-11-12T08:32:14;13.77;;;10.48;;
32697;SDS011;19087;51.062;3.754;2022-11-12T08:34:40;17.42;;;9.52;;
32697;SDS011;19087;51.062;3.754;2022-11-12T08:37:07;11.38;;;9.45;;
32697;SDS011;19087;51.062;3.754;2022-11-12T08:39:33;14.80;;;9.88;;
32697;SDS011;19087;51.062;3.754;2022-11-12T08:41:58;12.27;;;9.82;;
32697;SDS011;19087;51.062;3.754;2022-11-12T08:44:24;12.00;;;9.48;;
32697;SDS011;19087;51.062;3.754;2022-11-12T08:46:50;14.13;;;9.95;;
32697;SDS011;19087;51.062;3.754;2022-11-12T08:49:15;11.82;;;9.88;;
32697;SDS011;19087;51.062;3.754;2022-11-12T08:51:41;16.77;;;10.82;;
32697;SDS011;19087;51.062;3.754;2022-11-12T08:54:07;14.70;;;10.65;;
32697;SDS011;19087;51.062;3.754;2022-11-12T08:56:32;13.20;;;8.65;;
32697;SDS011;19087;51.062;3.754;2022-11-12T08:58:58;12.80;;;9.32;;
32697;SDS011;19087;51.062;3.754;2022-11-12T09:01:24;12.15;;;9.82;;
32697;SDS011;19087;51.062;3.754;2022-11-12T09:03:49;12.95;;;10.38;;
32697;SDS011;19087;51.062;3.754;2022-11-12T09:06:15;15.50;;;10.65;;
32697;SDS011;19087;51.062;3.754;2022-11-12T09:08:41;10.85;;;9.73;;
32697;SDS011;19087;51.062;3.754;2022-11-12T09:11:06;13.57;;;11.18;;
32697;SDS011;19087;51.062;3.754;2022-11-12T09:13:32;18.55;;;10.00;;
32697;SDS011;19087;51.062;3.754;2022-11-12T09:15:59;11.27;;;10.10;;
32697;SDS011;19087;51.062;3.754;2022-11-12T09:18:29;16.52;;;10.52;;
32697;SDS011;19087;51.062;3.754;2022-11-12T09:21:02;11.48;;;9.30;;
32697;SDS011;19087;51.062;3.754;2022-11-12T09:23:29;12.13;;;9.23;;
32697;SDS011;19087;51.062;3.754;2022-11-12T09:25:55;11.07;;;9.23;;
32697;SDS011;19087;51.062;3.754;2022-11-12T09:28:22;10.18;;;8.95;;
32697;SDS011;19087;51.062;3.754;2022-11-12T09:30:49;10.90;;;8.95;;
32697;SDS011;19087;51.062;3.754;2022-11-12T09:33:20;10.82;;;8.63;;
32697;SDS011;19087;51.062;3.754;2022-11-12T09:35:48;11.10;;;8.27;;
32697;SDS011;19087;51.062;3.754;2022-11-12T09:38:14;10.18;;;8.35;;
32697;SDS011;19087;51.062;3.754;2022-11-12T09:43:20;13.27;;;8.52;;
32697;SDS011;19087;51.062;3.754;2022-11-12T09:46:10;11.65;;;6.88;;
32697;SDS011;19087;51.062;3.754;2022-11-12T09:48:52;9.45;;;7.78;;
32697;SDS011;19087;51.062;3.754;2022-11-12T09:51:27;8.73;;;7.68;;
32697;SDS011;19087;51.062;3.754;2022-11-12T09:53:58;8.85;;;7.65;;
32697;SDS011;19087;51.062;3.754;2022-11-12T09:56:37;9.00;;;7.20;;
32697;SDS011;19087;51.062;3.754;2022-11-12T09:59:07;11.80;;;7.15;;
32697;SDS011;19087;51.062;3.754;2022-11-12T10:04:41;9.15;;;7.72;;
32697;SDS011;19087;51.062;3.754;2022-11-12T10:07:31;9.18;;;7.72;;
32697;SDS011;19087;51.062;3.754;2022-11-12T10:10:29;8.23;;;7.20;;
32697;SDS011;19087;51.062;3.754;2022-11-12T10:15:56;10.95;;;7.78;;
32697;SDS011;19087;51.062;3.754;2022-11-12T10:24:06;8.38;;;7.32;;
32697;SDS011;19087;51.062;3.754;2022-11-12T10:26:38;9.10;;;7.65;;
32697;SDS011;19087;51.062;3.754;2022-11-12T10:31:36;11.68;;;8.05;;
32697;SDS011;19087;51.062;3.754;2022-11-12T10:34:10;10.73;;;7.65;;
32697;SDS011;19087;51.062;3.754;2022-11-12T10:37:05;9.68;;;7.70;;
32697;SDS011;19087;51.062;3.754;2022-11-12T10:39:36;9.10;;;7.57;;
32697;SDS011;19087;51.062;3.754;2022-11-12T10:42:05;8.50;;;7.60;;
32697;SDS011;19087;51.062;3.754;2022-11-12T10:44:32;9.27;;;8.27;;
32697;SDS011;19087;51.062;3.754;2022-11-12T10:52:32;8.65;;;7.65;;
32697;SDS011;19087;51.062;3.754;2022-11-12T10:55:03;8.45;;;7.57;;
32697;SDS011;19087;51.062;3.754;2022-11-12T10:57:59;13.75;;;8.77;;
32697;SDS011;19087;51.062;3.754;2022-11-12T11:00:35;10.15;;;7.78;;
32697;SDS011;19087;51.062;3.754;2022-11-12T11:03:16;11.13;;;7.07;;
32697;SDS011;19087;51.062;3.754;2022-11-12T11:05:55;12.23;;;7.38;;
32697;SDS011;19087;51.062;3.754;2022-11-12T11:08:36;10.00;;;7.93;;
32697;SDS011;19087;51.062;3.754;2022-11-12T11:13:40;8.77;;;7.88;;
32697;SDS011;19087;51.062;3.754;2022-11-12T11:16:07;11.82;;;8.00;;
32697;SDS011;19087;51.062;3.754;2022-11-12T11:18:37;8.38;;;7.15;;
32697;SDS011;19087;51.062;3.754;2022-11-12T11:21:28;8.13;;;7.32;;
32697;SDS011;19087;51.062;3.754;2022-11-12T11:29:51;9.23;;;7.50;;
32697;SDS011;19087;51.062;3.754;2022-11-12T11:35:23;10.80;;;8.00;;
32697;SDS011;19087;51.062;3.754;2022-11-12T11:40:58;7.73;;;6.93;;
32697;SDS011;19087;51.062;3.754;2022-11-12T11:43:47;11.75;;;7.80;;
32697;SDS011;19087;51.062;3.754;2022-11-12T11:49:43;11.23;;;8.02;;
32697;SDS011;19087;51.062;3.754;2022-11-12T11:52:11;8.85;;;7.70;;
32697;SDS011;19087;51.062;3.754;2022-11-12T11:57:11;8.85;;;7.70;;
32697;SDS011;19087;51.062;3.754;2022-11-12T12:16:52;10.57;;;6.28;;
32697;SDS011;19087;51.062;3.754;2022-11-12T12:22:45;9.63;;;7.25;;
32697;SDS011;19087;51.062;3.754;2022-11-12T12:25:22;8.23;;;7.15;;
32697;SDS011;19087;51.062;3.754;2022-11-12T12:31:20;10.52;;;7.07;;
32697;SDS011;19087;51.062;3.754;2022-11-12T12:33:50;10.30;;;7.95;;
32697;SDS011;19087;51.062;3.754;2022-11-12T12:36:22;8.90;;;7.40;;
32697;SDS011;19087;51.062;3.754;2022-11-12T12:42:05;7.75;;;6.95;;
32697;SDS011;19087;51.062;3.754;2022-11-12T12:44:44;8.73;;;7.55;;
32697;SDS011;19087;51.062;3.754;2022-11-12T12:47:35;8.68;;;6.68;;
32697;SDS011;19087;51.062;3.754;2022-11-12T12:50:05;7.57;;;6.55;;
32697;SDS011;19087;51.062;3.754;2022-11-12T12:55:38;11.57;;;7.32;;
32697;SDS011;19087;51.062;3.754;2022-11-12T12:58:28;8.38;;;7.28;;
32697;SDS011;19087;51.062;3.754;2022-11-12T13:01:07;8.27;;;7.45;;
32697;SDS011;19087;51.062;3.754;2022-11-12T13:08:48;8.95;;;6.63;;
32697;SDS011;19087;51.062;3.754;2022-11-12T13:16:59;8.18;;;6.93;;
32697;SDS011;19087;51.062;3.754;2022-11-12T13:49:13;9.43;;;7.03;;
32697;SDS011;19087;51.062;3.754;2022-11-12T13:51:44;8.73;;;6.65;;
32697;SDS011;19087;51.062;3.754;2022-11-12T13:59:45;10.40;;;6.63;;
32697;SDS011;19087;51.062;3.754;2022-11-12T14:02:25;13.10;;;6.50;;
32697;SDS011;19087;51.062;3.754;2022-11-12T14:04:51;11.23;;;6.85;;
32697;SDS011;19087;51.062;3.754;2022-11-12T14:07:30;8.60;;;7.10;;
32697;SDS011;19087;51.062;3.754;2022-11-12T14:16:01;8.15;;;7.32;;
32697;SDS011;19087;51.062;3.754;2022-11-12T14:18:37;9.27;;;6.70;;
32697;SDS011;19087;51.062;3.754;2022-11-12T14:21:14;10.38;;;7.78;;
32697;SDS011;19087;51.062;3.754;2022-11-12T14:23:46;8.70;;;7.22;;
32697;SDS011;19087;51.062;3.754;2022-11-12T14:26:14;10.05;;;6.97;;
32697;SDS011;19087;51.062;3.754;2022-11-12T14:29:14;8.98;;;6.95;;
32697;SDS011;19087;51.062;3.754;2022-11-12T14:31:41;8.20;;;7.40;;
32697;SDS011;19087;51.062;3.754;2022-11-12T14:34:20;9.05;;;7.80;;
32697;SDS011;19087;51.062;3.754;2022-11-12T14:36:46;12.20;;;7.53;;
32697;SDS011;19087;51.062;3.754;2022-11-12T14:39:13;11.57;;;8.05;;
32697;SDS011;19087;51.062;3.754;2022-11-12T14:41:40;8.30;;;7.45;;
32697;SDS011;19087;51.062;3.754;2022-11-12T14:44:11;10.30;;;8.63;;
32697;SDS011;19087;51.062;3.754;2022-11-12T14:46:46;9.65;;;8.40;;
32697;SDS011;19087;51.062;3.754;2022-11-12T14:49:16;10.02;;;8.15;;
32697;SDS011;19087;51.062;3.754;2022-11-12T14:51:46;9.88;;;8.45;;
32697;SDS011;19087;51.062;3.754;2022-11-12T14:54:28;10.35;;;8.95;;
32697;SDS011;19087;51.062;3.754;2022-11-12T14:56:56;9.07;;;8.15;;
32697;SDS011;19087;51.062;3.754;2022-11-12T14:59:25;12.10;;;8.27;;
32697;SDS011;19087;51.062;3.754;2022-11-12T15:02:12;10.73;;;8.48;;
32697;SDS011;19087;51.062;3.754;2022-11-12T15:04:42;10.38;;;8.88;;
32697;SDS011;19087;51.062;3.754;2022-11-12T15:09:52;10.20;;;8.07;;
32697;SDS011;19087;51.062;3.754;2022-11-12T15:12:29;19.63;;;8.35;;
32697;SDS011;19087;51.062;3.754;2022-11-12T15:15:05;10.38;;;8.70;;
32697;SDS011;19087;51.062;3.754;2022-11-12T15:17:41;12.60;;;8.73;;
32697;SDS011;19087;51.062;3.754;2022-11-12T15:20:14;11.07;;;8.60;;
32697;SDS011;19087;51.062;3.754;2022-11-12T15:22:48;13.68;;;8.93;;
32697;SDS011;19087;51.062;3.754;2022-11-12T15:27:40;11.88;;;9.27;;
32697;SDS011;19087;51.062;3.754;2022-11-12T15:30:20;10.90;;;8.77;;
32697;SDS011;19087;51.062;3.754;2022-11-12T15:32:47;11.65;;;9.27;;
32697;SDS011;19087;51.062;3.754;2022-11-12T15:35:33;13.45;;;9.63;;
32697;SDS011;19087;51.062;3.754;2022-11-12T15:38:02;14.85;;;9.60;;
32697;SDS011;19087;51.062;3.754;2022-11-12T15:40:31;16.00;;;9.70;;
32697;SDS011;19087;51.062;3.754;2022-11-12T15:43:17;11.00;;;9.25;;
32697;SDS011;19087;51.062;3.754;2022-11-12T15:45:46;15.00;;;9.15;;
32697;SDS011;19087;51.062;3.754;2022-11-12T15:48:13;14.27;;;10.75;;
32697;SDS011;19087;51.062;3.754;2022-11-12T15:50:39;13.80;;;9.75;;
32697;SDS011;19087;51.062;3.754;2022-11-12T15:53:05;15.07;;;10.88;;
32697;SDS011;19087;51.062;3.754;2022-11-12T15:55:31;13.30;;;10.52;;
32697;SDS011;19087;51.062;3.754;2022-11-12T15:57:57;18.23;;;10.20;;
32697;SDS011;19087;51.062;3.754;2022-11-12T16:00:25;18.73;;;9.68;;
32697;SDS011;19087;51.062;3.754;2022-11-12T16:03:17;22.02;;;12.07;;
32697;SDS011;19087;51.062;3.754;2022-11-12T16:05:45;23.35;;;12.77;;
32697;SDS011;19087;51.062;3.754;2022-11-12T16:08:11;22.25;;;14.07;;
32697;SDS011;19087;51.062;3.754;2022-11-12T16:10:38;25.85;;;14.43;;
32697;SDS011;19087;51.062;3.754;2022-11-12T16:13:05;14.80;;;13.02;;
32697;SDS011;19087;51.062;3.754;2022-11-12T16:15:31;20.38;;;14.60;;
32697;SDS011;19087;51.062;3.754;2022-11-12T16:17:57;27.05;;;15.13;;
32697;SDS011;19087;51.062;3.754;2022-11-12T16:20:33;30.77;;;17.17;;
32697;SDS011;19087;51.062;3.754;2022-11-12T16:22:59;28.98;;;17.13;;
32697;SDS011;19087;51.062;3.754;2022-11-12T16:25:27;26.15;;;16.60;;
32697;SDS011;19087;51.062;3.754;2022-11-12T16:27:57;18.45;;;15.35;;
32697;SDS011;19087;51.062;3.754;2022-11-12T16:30:26;20.77;;;15.38;;
32697;SDS011;19087;51.062;3.754;2022-11-12T16:32:55;19.15;;;13.82;;
32697;SDS011;19087;51.062;3.754;2022-11-12T16:35:21;22.02;;;14.90;;
32697;SDS011;19087;51.062;3.754;2022-11-12T16:37:49;19.50;;;14.77;;
32697;SDS011;19087;51.062;3.754;2022-11-12T16:40:19;22.50;;;14.52;;
32697;SDS011;19087;51.062;3.754;2022-11-12T16:42:47;27.05;;;16.50;;
32697;SDS011;19087;51.062;3.754;2022-11-12T16:45:22;22.55;;;14.38;;
32697;SDS011;19087;51.062;3.754;2022-11-12T16:47:55;22.20;;;14.88;;
32697;SDS011;19087;51.062;3.754;2022-11-12T16:50:23;22.33;;;15.18;;
32697;SDS011;19087;51.062;3.754;2022-11-12T16:52:50;21.23;;;13.93;;
32697;SDS011;19087;51.062;3.754;2022-11-12T16:55:17;17.88;;;13.80;;
32697;SDS011;19087;51.062;3.754;2022-11-12T16:57:47;20.60;;;14.77;;
32697;SDS011;19087;51.062;3.754;2022-11-12T17:00:14;19.50;;;14.93;;
32697;SDS011;19087;51.062;3.754;2022-11-12T17:02:43;19.63;;;15.40;;
32697;SDS011;19087;51.062;3.754;2022-11-12T17:05:11;20.13;;;16.00;;
32697;SDS011;19087;51.062;3.754;2022-11-12T17:07:39;22.25;;;15.80;;
32697;SDS011;19087;51.062;3.754;2022-11-12T17:10:05;25.75;;;16.38;;
32697;SDS011;19087;51.062;3.754;2022-11-12T17:12:31;24.60;;;17.00;;
32697;SDS011;19087;51.062;3.754;2022-11-12T17:14:57;36.28;;;24.55;;
32697;SDS011;19087;51.062;3.754;2022-11-12T17:17:22;36.70;;;25.08;;
32697;SDS011;19087;51.062;3.754;2022-11-12T17:19:48;31.52;;;21.95;;
32697;SDS011;19087;51.062;3.754;2022-11-12T17:22:13;24.17;;;18.58;;
32697;SDS011;19087;51.062;3.754;2022-11-12T17:24:39;25.23;;;20.02;;
32697;SDS011;19087;51.062;3.754;2022-11-12T17:27:05;24.55;;;18.08;;